• Join FlightAware (Why Join?)
  • Login
  • US Flag 
05:05PM EDT


 

Airport Tracker/Info


-or-


 

Live Flight TrackerFlight Track Log ✈ AAY846 ✈ 17-Feb-2014 ✈ KPIE - KPIA

Flight Track Log - Related Links

Times and Time Zones

All times are in EST time to prevent confusion due to time zone crossing. See the AAY846 flight status page for this flight to view local times or setup timezone preferences in your user account.

Time Position Orientation Groundspeed Altitude Reporting Facility
EST Latitude Longitude Course Direction KTS MPH feet Rate Location/Type
09:11AM 27.9167 -82.6833 360° North 166 191 500  Level Tampa TRACON
09:12AM 27.9667 -82.6833 360° North 194 223 1,600 1,620 Climbing Tampa TRACON
09:13AM 28.0333 -82.6667 12° North 265 305 3,500 2,220 Climbing Tampa TRACON
09:15AM 28.2167 -82.7017 350° North 277 319 9,700 2,160 Climbing Jacksonville Center
09:16AM 28.3000 -82.7133 353° North 289 333 11,100 1,320 Climbing Jacksonville Center
09:17AM 28.4003 -82.7297 352° North 322 371 12,400 1,680 Climbing Jacksonville Center
09:18AM 28.5067 -82.7461 352° North 363 418 14,500 2,100 Climbing Jacksonville Center
09:19AM 28.6089 -82.7886 340° North 381 438 16,700 1,620 Climbing Jacksonville Center
09:20AM 28.6800 -82.8475 324° Northwest 386 444 17,800 1,380 Climbing Jacksonville Center
09:21AM 28.7822 -82.9306 325° Northwest 392 451 19,500 1,680 Climbing Jacksonville Center
09:22AM 28.8783 -83.0089 324° Northwest 407 468 21,200 1,440 Climbing Jacksonville Center
09:23AM 28.9761 -83.0847 326° Northwest 417 480 22,500 1,500 Climbing Jacksonville Center
09:24AM 29.0722 -83.1658 324° Northwest 428 493 24,300 1,560 Climbing Jacksonville Center
09:25AM 29.1722 -83.2422 326° Northwest 433 498 25,700 1,440 Climbing Jacksonville Center
09:26AM 29.2764 -83.3069 332° Northwest 428 493 27,200 1,320 Climbing Jacksonville Center
09:27AM 29.3825 -83.3669 334° Northwest 423 487 28,400 1,140 Climbing Jacksonville Center
09:28AM 29.4889 -83.4269 334° Northwest 423 487 29,500 780 Climbing Jacksonville Center
09:29AM 29.5950 -83.4850 335° Northwest 423 487 30,000 180 Climbing Jacksonville Center
09:30AM 29.7075 -83.5503 333° Northwest 423 487 29,900 -60 Descending Jacksonville Center
09:31AM 29.8136 -83.6108 334° Northwest 418 481 29,900  Level Jacksonville Center
09:32AM 29.9175 -83.6667 335° Northwest 418 481 30,000  Climbing Jacksonville Center
09:33AM 30.0194 -83.7250 334° Northwest 418 481 29,900  Descending Jacksonville Center
09:34AM 30.1236 -83.7858 333° Northwest 406 467 30,000  Climbing Jacksonville Center
09:35AM 30.2275 -83.8444 334° Northwest 406 467 30,000 -60 Level Jacksonville Center
09:36AM 30.3294 -83.9033 334° Northwest 406 467 29,900  Descending Jacksonville Center
09:37AM 30.4311 -83.9622 333° Northwest 406 467 30,000  Climbing Jacksonville Center
09:38AM 30.5350 -84.0214 334° Northwest 406 467 29,900  Descending Jacksonville Center
09:39AM 30.6244 -84.0731 334° Northwest 399 459 30,000  Climbing Jacksonville Center
09:40AM 30.7281 -84.1347 333° Northwest 399 459 30,000  Level Jacksonville Center
09:41AM 30.8300 -84.1942 333° Northwest 407 468 30,000  Level Jacksonville Center
09:42AM 30.9336 -84.2536 334° Northwest 407 468 30,000  Level Jacksonville Center
09:43AM 31.0353 -84.3158 332° Northwest 407 468 30,000  Level Jacksonville Center
09:44AM 31.1389 -84.3756 334° Northwest 407 468 30,000  Level Jacksonville Center
09:46AM 31.3867 -84.5206 333° Northwest 407 468 30,000  Level Atlanta Center
09:47AM 31.4886 -84.5794 334° Northwest 407 468 30,000  Level Atlanta Center
09:48AM 31.5908 -84.6411 333° Northwest 407 468 30,000  Level Atlanta Center
09:49AM 31.6928 -84.7053 332° Northwest 407 468 30,000  Level Atlanta Center
09:50AM 31.7925 -84.7644 333° Northwest 407 468 30,000  Level Atlanta Center
09:51AM 31.8986 -84.8167 337° Northwest 407 468 30,000  Level Atlanta Center
09:52AM 32.0111 -84.8544 344° North 407 468 30,000  Level Atlanta Center
09:53AM 32.1339 -84.8972 344° North 412 474 30,000  Level Atlanta Center
09:54AM 32.2464 -84.9353 344° North 412 474 30,000  Level Atlanta Center
09:55AM 32.3400 -84.9631 346° North 412 474 30,000  Level Atlanta Center
09:56AM 32.4589 -85.0039 344° North 418 481 30,000  Level Atlanta Center
09:57AM 32.5692 -85.0394 345° North 418 481 30,000  Level Atlanta Center
09:58AM 32.6836 -85.0778 344° North 412 474 30,000  Level Atlanta Center
09:59AM 32.8000 -85.1261 341° North 424 488 30,000  Level Atlanta Center
10:00AM 32.9083 -85.1547 347° North 424 488 30,000  Level Atlanta Center
10:01AM 33.0186 -85.1933 344° North 414 476 30,000  Level Atlanta Center
10:02AM 33.1289 -85.2469 338° Northwest 423 487 30,000  Level Atlanta Center
10:03AM 33.2347 -85.2956 339° North 412 474 30,000  Level Atlanta Center
10:04AM 33.3489 -85.3519 338° Northwest 407 468 30,000  Level Atlanta Center
10:05AM 33.4550 -85.3983 340° North 407 468 30,000  Level Atlanta Center
10:06AM 33.5628 -85.4475 339° North 407 468 30,000  Level Atlanta Center
10:07AM 33.6667 -85.4989 338° Northwest 407 468 30,000  Level Atlanta Center
10:08AM 33.7725 -85.5483 339° North 407 468 30,000  Level Atlanta Center
10:09AM 33.8783 -85.5950 340° North 407 468 30,000  Level Atlanta Center
10:10AM 33.9822 -85.6447 338° Northwest 407 468 30,000  Level Atlanta Center
10:11AM 34.0733 -85.6864 339° North 402 463 30,000  Level Atlanta Center
10:12AM 34.1769 -85.7361 338° Northwest 397 457 30,000  Level Atlanta Center
10:13AM 34.2808 -85.7861 338° Northwest 392 451 30,000  Level Atlanta Center
10:14AM 34.3822 -85.8283 341° North 392 451 30,000  Level Atlanta Center
10:15AM 34.4881 -85.8786 339° North 392 451 30,000  Level Atlanta Center
10:16AM 34.5917 -85.9286 338° Northwest 392 451 30,000  Level Atlanta Center
10:17AM 34.6972 -85.9767 339° North 392 451 30,000  Level Atlanta Center
10:18AM 34.8028 -86.0294 338° Northwest 397 457 30,000  Level Atlanta Center
10:19AM 34.9086 -86.0803 339° North 397 457 30,000  Level Atlanta Center
10:20AM 35.0097 -86.1333 337° Northwest 397 457 30,000  Level Atlanta Center
10:21AM 35.1156 -86.1792 340° North 397 457 30,000  Level Atlanta Center
10:23AM 35.2767 -86.2628 337° Northwest 402 463 30,000  Level Memphis Center
10:24AM 35.3822 -86.3122 339° North 402 463 30,000  Level Memphis Center
10:25AM 35.4847 -86.3636 338° Northwest 397 457 30,000  Level Memphis Center
10:26AM 35.5853 -86.4214 335° Northwest 396 456 30,000  Level Memphis Center
10:27AM 35.6858 -86.4783 335° Northwest 394 453 30,000  Level Memphis Center
10:28AM 35.8033 -86.5431 336° Northwest 394 453 30,000  Level Memphis Center
10:29AM 35.9036 -86.5989 336° Northwest 393 452 30,000  Level Memphis Center
10:30AM 36.0033 -86.6544 336° Northwest 390 449 30,000  Level Memphis Center
10:31AM 36.1017 -86.7094 336° Northwest 387 445 30,000  Level Memphis Center
10:32AM 36.2003 -86.7650 336° Northwest 386 444 30,000  Level Memphis Center
10:33AM 36.3039 -86.8225 336° Northwest 387 445 30,000  Level Memphis Center
10:34AM 36.4094 -86.8808 336° Northwest 389 448 30,000  Level Memphis Center
10:35AM 36.5078 -86.9378 335° Northwest 388 447 30,000  Level Memphis Center
10:36AM 36.6081 -86.9944 336° Northwest 390 449 30,000  Level Memphis Center
10:37AM 36.7075 -87.0508 336° Northwest 390 449 30,000  Level Memphis Center
10:38AM 36.8089 -87.1097 335° Northwest 394 453 30,000  Level Memphis Center
10:40AM 36.9100 -87.1672 336° Northwest 396 456 30,000  Level Memphis Center
10:41AM 37.0261 -87.2339 335° Northwest 392 451 30,000  Level Memphis Center
10:42AM 37.1233 -87.2914 335° Northwest 385 443 30,000  Level Memphis Center
10:43AM 37.2056 -87.3392 335° Northwest 386 444 30,000  Level Indianapolis Center
10:44AM 37.3206 -87.4067 335° Northwest 386 444 30,000  Level Indianapolis Center
10:45AM 37.4208 -87.4636 336° Northwest 387 445 30,000  Level Indianapolis Center
10:46AM 37.5203 -87.5214 335° Northwest 387 445 30,000  Level Indianapolis Center
10:47AM 37.6197 -87.5794 335° Northwest 389 448 30,000  Level Indianapolis Center
10:48AM 37.7200 -87.6386 335° Northwest 391 450 30,000  Level Indianapolis Center
10:49AM 37.8131 -87.6931 335° Northwest 392 451 30,000  Level Indianapolis Center
10:50AM 37.9125 -87.7539 334° Northwest 392 451 30,000  Level Indianapolis Center
10:51AM 38.0339 -87.8247 335° Northwest 394 453 30,000  Level Indianapolis Center
10:52AM 38.1358 -87.8850 335° Northwest 395 455 30,000  Level Indianapolis Center
10:53AM 38.2372 -87.9453 335° Northwest 396 456 30,000  Level Indianapolis Center
10:54AM 38.3397 -88.0064 335° Northwest 398 458 30,000  Level Indianapolis Center
10:55AM 38.4411 -88.0667 335° Northwest 398 458 30,000  Level Indianapolis Center
10:56AM 38.5419 -88.1264 335° Northwest 398 458 30,000  Level Indianapolis Center
10:57AM 38.6417 -88.1872 335° Northwest 398 458 30,000  Level Indianapolis Center
10:58AM 38.7439 -88.2489 335° Northwest 398 458 30,000  Level Indianapolis Center
10:59AM 38.8467 -88.3103 335° Northwest 399 459 30,000  Level Indianapolis Center
11:00AM 38.9497 -88.3733 335° Northwest 400 460 30,000  Level Indianapolis Center
11:01AM 39.0550 -88.4361 335° Northwest 407 468 30,000 -300 Level Indianapolis Center
11:02AM 39.1781 -88.5117 335° Northwest 408 470 29,500 -1,080 Descending Indianapolis Center
11:03AM 39.2817 -88.5742 335° Northwest 408 470 27,900 -1,980 Descending Indianapolis Center
11:04AM 39.3822 -88.6358 335° Northwest 404 465 25,500 -2,580 Descending Indianapolis Center
11:05AM 39.4881 -88.7008 335° Northwest 410 472 22,600 -2,400 Descending Indianapolis Center
11:06AM 39.5933 -88.7669 334° Northwest 418 481 20,700 -1,740 Descending Indianapolis Center
11:07AM 39.6903 -88.8261 335° Northwest 413 475 19,100 -1,740 Descending Indianapolis Center
11:09AM 39.8083 -88.9150 330° Northwest 395 455 16,700 -1,920 Descending Kansas City Center
11:10AM 39.9078 -89.0106 324° Northwest 374 430 14,500 -1,740 Descending Chicago Center
11:11AM 39.9947 -89.0858 326° Northwest 374 430 13,000 -1,500 Descending Chicago Center
11:12AM 40.0789 -89.1600 326° Northwest 368 423 11,500 -1,080 Descending Kansas City Center
11:13AM 40.1581 -89.2328 325° Northwest 354 407 10,900 -300 Descending Kansas City Center
11:14AM 40.2325 -89.2978 326° Northwest 335 386 10,900  Level Chicago Center
11:15AM 40.3214 -89.3800 325° Northwest 328 377 10,900  Level Chicago Center
11:16AM 40.3961 -89.4483 325° Northwest 327 376 11,000 -360 Climbing Chicago Center
11:17AM 40.4692 -89.5197 323° Northwest 328 377 10,200 -780 Descending Chicago Center
11:18AM 40.5328 -89.5897 320° Northwest 315 362 9,500 -1,020 Descending Chicago Center
11:19AM 40.5819 -89.6611 312° West 286 329 8,200 -1,260 Descending Chicago Center
11:20AM 40.6294 -89.7300 312° West 267 307 7,000 -1,500 Descending Chicago Center
11:21AM 40.6722 -89.8053 307° West 260 299 5,200 -1,800 Descending Chicago Center
11:22AM 40.6956 -89.8956 289° West 253 291 3,400 -1,380 Descending Chicago Center
11:23AM 40.7239 -89.9728 296° West 248 285 2,400 -480 Descending Chicago Center
11:24AM 40.7603 -89.9364 37° Northeast 206 237 2,500  Climbing Chicago Center
11:25AM 40.7617 -89.8789 88° East 173 199 2,400 -60 Descending Chicago Center
11:26AM 40.7425 -89.8353 120° Southeast 148 170 2,400 -120 Level Chicago Center
11:27AM 40.7203 -89.7950 126° Southeast 138 159 2,200 -360 Descending Chicago Center
11:28AM 40.7006 -89.7611 128° Southeast 126 145 1,700 -660 Descending Chicago Center
11:29AM 40.6803 -89.7247 126° Southeast 122 140 900 -480 Descending Chicago Center
11:30AM 40.6594 -89.6894 128° Southeast 122 140 800 -120 Descending Chicago Center